sensor_id;sensor_type;location;lat;lon;timestamp;pressure;altitude;pressure_sealevel;temperature;humidity
33163;BME280;29282;45.656;11.302;2024-02-16T00:00:08;98908.13;;;19.33;47.27
33163;BME280;29282;45.656;11.302;2024-02-16T00:02:33;98907.00;;;19.34;47.31
33163;BME280;29282;45.656;11.302;2024-02-16T00:04:59;98905.38;;;19.33;47.27
33163;BME280;29282;45.656;11.302;2024-02-16T00:07:25;98902.16;;;19.31;47.11
33163;BME280;29282;45.656;11.302;2024-02-16T00:09:50;98900.53;;;19.30;47.24
33163;BME280;29282;45.656;11.302;2024-02-16T00:12:16;98902.16;;;19.31;47.20
33163;BME280;29282;45.656;11.302;2024-02-16T00:14:42;98900.53;;;19.30;47.20
33163;BME280;29282;45.656;11.302;2024-02-16T00:17:07;98901.66;;;19.29;47.27
33163;BME280;29282;45.656;11.302;2024-02-16T00:19:35;98891.31;;;19.25;47.26
33163;BME280;29282;45.656;11.302;2024-02-16T00:22:01;98894.88;;;19.26;47.04
33163;BME280;29282;45.656;11.302;2024-02-16T00:24:27;98892.47;;;19.24;47.27
33163;BME280;29282;45.656;11.302;2024-02-16T00:26:52;98885.34;;;19.23;47.31
33163;BME280;29282;45.656;11.302;2024-02-16T00:29:18;98879.03;;;19.23;47.19
33163;BME280;29282;45.656;11.302;2024-02-16T00:31:44;98878.25;;;19.22;47.27
33163;BME280;29282;45.656;11.302;2024-02-16T00:34:10;98873.09;;;19.21;47.13
33163;BME280;29282;45.656;11.302;2024-02-16T00:36:36;98879.69;;;19.20;47.25
33163;BME280;29282;45.656;11.302;2024-02-16T00:39:01;98873.88;;;19.21;47.22
33163;BME280;29282;45.656;11.302;2024-02-16T00:41:27;98872.59;;;19.19;47.17
33163;BME280;29282;45.656;11.302;2024-02-16T00:43:56;98869.84;;;19.19;47.12
33163;BME280;29282;45.656;11.302;2024-02-16T00:46:24;98874.53;;;19.18;47.13
33163;BME280;29282;45.656;11.302;2024-02-16T00:48:51;98868.53;;;19.16;47.30
33163;BME280;29282;45.656;11.302;2024-02-16T00:51:17;98857.56;;;19.16;47.09
33163;BME280;29282;45.656;11.302;2024-02-16T00:53:42;98867.75;;;19.16;47.07
33163;BME280;29282;45.656;11.302;2024-02-16T00:56:08;98865.00;;;19.16;47.19
33163;BME280;29282;45.656;11.302;2024-02-16T00:58:36;98866.44;;;19.13;47.13
33163;BME280;29282;45.656;11.302;2024-02-16T01:01:04;98864.84;;;19.12;47.18
33163;BME280;29282;45.656;11.302;2024-02-16T01:03:29;98860.50;;;19.11;47.16
33163;BME280;29282;45.656;11.302;2024-02-16T01:05:55;98860.50;;;19.11;47.15
33163;BME280;29282;45.656;11.302;2024-02-16T01:08:20;98854.19;;;19.11;47.17
33163;BME280;29282;45.656;11.302;2024-02-16T01:10:48;98847.06;;;19.10;47.04
33163;BME280;29282;45.656;11.302;2024-02-16T01:13:13;98843.53;;;19.09;47.07
33163;BME280;29282;45.656;11.302;2024-02-16T01:15:39;98849.34;;;19.08;47.11
33163;BME280;29282;45.656;11.302;2024-02-16T01:18:06;98848.53;;;19.07;47.13
33163;BME280;29282;45.656;11.302;2024-02-16T01:20:32;98841.41;;;19.06;47.23
33163;BME280;29282;45.656;11.302;2024-02-16T01:22:57;98845.31;;;19.05;47.18
33163;BME280;29282;45.656;11.302;2024-02-16T01:25:23;98849.66;;;19.06;47.23
33163;BME280;29282;45.656;11.302;2024-02-16T01:27:48;98847.72;;;19.07;47.16
33163;BME280;29282;45.656;11.302;2024-02-16T01:30:14;98841.75;;;19.05;47.06
33163;BME280;29282;45.656;11.302;2024-02-16T01:32:40;98842.06;;;19.03;47.10
33163;BME280;29282;45.656;11.302;2024-02-16T01:35:06;98843.22;;;19.02;47.12
33163;BME280;29282;45.656;11.302;2024-02-16T01:37:32;98838.84;;;19.01;47.16
33163;BME280;29282;45.656;11.302;2024-02-16T01:39:58;98834.97;;;19.02;47.18
33163;BME280;29282;45.656;11.302;2024-02-16T01:42:26;98839.16;;;18.99;47.27
33163;BME280;29282;45.656;11.302;2024-02-16T01:44:52;98838.84;;;19.01;47.17
33163;BME280;29282;45.656;11.302;2024-02-16T01:47:18;98830.13;;;18.99;47.08
33163;BME280;29282;45.656;11.302;2024-02-16T01:49:44;98833.22;;;18.97;47.21
33163;BME280;29282;45.656;11.302;2024-02-16T01:52:10;98824.97;;;18.97;47.29
33163;BME280;29282;45.656;11.302;2024-02-16T01:54:36;98823.69;;;18.95;47.17
33163;BME280;29282;45.656;11.302;2024-02-16T01:57:05;98825.28;;;18.96;47.25
33163;BME280;29282;45.656;11.302;2024-02-16T01:59:32;98826.44;;;18.95;47.11
33163;BME280;29282;45.656;11.302;2024-02-16T02:01:59;98823.97;;;18.93;47.26
33163;BME280;29282;45.656;11.302;2024-02-16T02:04:26;98827.53;;;18.94;47.14
33163;BME280;29282;45.656;11.302;2024-02-16T02:06:51;98823.97;;;18.93;47.17
33163;BME280;29282;45.656;11.302;2024-02-16T02:09:17;98816.88;;;18.92;47.14
33163;BME280;29282;45.656;11.302;2024-02-16T02:11:42;98821.56;;;18.92;47.19
33163;BME280;29282;45.656;11.302;2024-02-16T02:14:12;98818.03;;;18.91;47.26
33163;BME280;29282;45.656;11.302;2024-02-16T02:16:37;98815.59;;;18.90;47.20
33163;BME280;29282;45.656;11.302;2024-02-16T02:19:04;98813.19;;;18.88;47.11
33163;BME280;29282;45.656;11.302;2024-02-16T02:21:30;98815.13;;;18.88;47.24
33163;BME280;29282;45.656;11.302;2024-02-16T02:23:56;98810.09;;;18.90;47.20
33163;BME280;29282;45.656;11.302;2024-02-16T02:26:24;98806.91;;;18.88;47.14
33163;BME280;29282;45.656;11.302;2024-02-16T02:28:50;98803.00;;;18.89;47.17
33163;BME280;29282;45.656;11.302;2024-02-16T02:31:15;98799.78;;;18.87;47.17
33163;BME280;29282;45.656;11.302;2024-02-16T02:33:41;98798.97;;;18.86;47.12
33163;BME280;29282;45.656;11.302;2024-02-16T02:36:06;98795.41;;;18.86;47.22
33163;BME280;29282;45.656;11.302;2024-02-16T02:38:32;98798.97;;;18.86;47.23
33163;BME280;29282;45.656;11.302;2024-02-16T02:40:58;98796.88;;;18.83;47.28
33163;BME280;29282;45.656;11.302;2024-02-16T02:43:23;98800.41;;;18.84;47.17
33163;BME280;29282;45.656;11.302;2024-02-16T02:45:50;98797.66;;;18.84;47.14
33163;BME280;29282;45.656;11.302;2024-02-16T02:48:15;98789.78;;;18.82;47.13
33163;BME280;29282;45.656;11.302;2024-02-16T02:50:41;98782.69;;;18.81;47.23
33163;BME280;29282;45.656;11.302;2024-02-16T02:53:06;98791.22;;;18.80;47.11
33163;BME280;29282;45.656;11.302;2024-02-16T02:55:32;98786.53;;;18.80;47.23
33163;BME280;29282;45.656;11.302;2024-02-16T02:57:57;98784.13;;;18.78;47.21
33163;BME280;29282;45.656;11.302;2024-02-16T03:00:23;98779.44;;;18.79;47.10
33163;BME280;29282;45.656;11.302;2024-02-16T03:02:49;98790.41;;;18.79;47.20
33163;BME280;29282;45.656;11.302;2024-02-16T03:05:17;98786.38;;;18.76;47.22
33163;BME280;29282;45.656;11.302;2024-02-16T03:07:45;98785.56;;;18.76;47.16
33163;BME280;29282;45.656;11.302;2024-02-16T03:10:10;98778.16;;;18.76;47.06
33163;BME280;29282;45.656;11.302;2024-02-16T03:12:36;98778.94;;;18.77;47.26
33163;BME280;29282;45.656;11.302;2024-02-16T03:15:01;98775.75;;;18.75;47.16
33163;BME280;29282;45.656;11.302;2024-02-16T03:17:27;98774.09;;;18.74;47.14
33163;BME280;29282;45.656;11.302;2024-02-16T03:19:52;98778.00;;;18.73;47.03
33163;BME280;29282;45.656;11.302;2024-02-16T03:22:18;98778.78;;;18.73;47.11
33163;BME280;29282;45.656;11.302;2024-02-16T03:24:43;98766.22;;;18.72;47.20
33163;BME280;29282;45.656;11.302;2024-02-16T03:27:10;98769.75;;;18.73;47.31
33163;BME280;29282;45.656;11.302;2024-02-16T03:29:36;98775.56;;;18.71;47.23
33163;BME280;29282;45.656;11.302;2024-02-16T03:32:01;98773.91;;;18.70;47.18
33163;BME280;29282;45.656;11.302;2024-02-16T03:34:27;98776.66;;;18.70;47.20
33163;BME280;29282;45.656;11.302;2024-02-16T03:36:52;98771.50;;;18.69;47.30
33163;BME280;29282;45.656;11.302;2024-02-16T03:39:19;98773.13;;;18.70;47.21
33163;BME280;29282;45.656;11.302;2024-02-16T03:44:15;98776.19;;;18.68;47.13
33163;BME280;29282;45.656;11.302;2024-02-16T03:46:44;98776.19;;;18.68;47.22
33163;BME280;29282;45.656;11.302;2024-02-16T03:49:09;98775.69;;;18.66;47.08
33163;BME280;29282;45.656;11.302;2024-02-16T03:51:35;98775.69;;;18.66;47.12
33163;BME280;29282;45.656;11.302;2024-02-16T03:54:02;98783.13;;;18.66;47.15
33163;BME280;29282;45.656;11.302;2024-02-16T03:56:29;98782.34;;;18.65;47.18
33163;BME280;29282;45.656;11.302;2024-02-16T03:58:55;98779.59;;;18.65;47.26
33163;BME280;29282;45.656;11.302;2024-02-16T04:01:21;98779.91;;;18.64;47.13
33163;BME280;29282;45.656;11.302;2024-02-16T04:03:47;98791.72;;;18.64;47.17
33163;BME280;29282;45.656;11.302;2024-02-16T04:06:12;98785.38;;;18.64;47.05
33163;BME280;29282;45.656;11.302;2024-02-16T04:08:38;98784.59;;;18.63;47.16
33163;BME280;29282;45.656;11.302;2024-02-16T04:11:04;98782.19;;;18.62;47.01
33163;BME280;29282;45.656;11.302;2024-02-16T04:13:30;98789.59;;;18.61;47.09
33163;BME280;29282;45.656;11.302;2024-02-16T04:15:57;98789.59;;;18.61;47.24
33163;BME280;29282;45.656;11.302;2024-02-16T04:18:23;98789.59;;;18.61;47.14
33163;BME280;29282;45.656;11.302;2024-02-16T04:20:48;98782.47;;;18.60;47.16
33163;BME280;29282;45.656;11.302;2024-02-16T04:23:14;98780.38;;;18.57;47.09
33163;BME280;29282;45.656;11.302;2024-02-16T04:25:39;98785.88;;;18.57;47.20
33163;BME280;29282;45.656;11.302;2024-02-16T04:28:05;98785.06;;;18.57;47.19
33163;BME280;29282;45.656;11.302;2024-02-16T04:30:31;98783.13;;;18.57;47.08
33163;BME280;29282;45.656;11.302;2024-02-16T04:32:56;98779.59;;;18.57;47.14
33163;BME280;29282;45.656;11.302;2024-02-16T04:35:22;98782.31;;;18.57;47.14
33163;BME280;29282;45.656;11.302;2024-02-16T04:37:48;98781.53;;;18.56;46.94
33163;BME280;29282;45.656;11.302;2024-02-16T04:40:13;98772.50;;;18.55;47.12
33163;BME280;29282;45.656;11.302;2024-02-16T04:42:42;98793.63;;;18.55;47.13
33163;BME280;29282;45.656;11.302;2024-02-16T04:45:11;98784.91;;;18.53;47.06
33163;BME280;29282;45.656;11.302;2024-02-16T04:47:37;98781.84;;;18.54;47.13
33163;BME280;29282;45.656;11.302;2024-02-16T04:50:02;98784.91;;;18.53;47.00
33163;BME280;29282;45.656;11.302;2024-02-16T04:52:28;98787.66;;;18.53;46.95
33163;BME280;29282;45.656;11.302;2024-02-16T04:54:54;98780.56;;;18.52;47.03
33163;BME280;29282;45.656;11.302;2024-02-16T04:57:19;98780.56;;;18.52;47.10
33163;BME280;29282;45.656;11.302;2024-02-16T04:59:46;98783.31;;;18.52;47.16
33163;BME280;29282;45.656;11.302;2024-02-16T05:02:11;98779.75;;;18.51;47.13
33163;BME280;29282;45.656;11.302;2024-02-16T05:04:40;98788.28;;;18.50;47.12
33163;BME280;29282;45.656;11.302;2024-02-16T05:07:05;98779.75;;;18.51;47.10
33163;BME280;29282;45.656;11.302;2024-02-16T05:09:34;98781.69;;;18.51;46.96
33163;BME280;29282;45.656;11.302;2024-02-16T05:11:59;98787.19;;;18.51;47.11
33163;BME280;29282;45.656;11.302;2024-02-16T05:14:25;98788.00;;;18.51;47.00
33163;BME280;29282;45.656;11.302;2024-02-16T05:16:50;98783.94;;;18.49;46.97
33163;BME280;29282;45.656;11.302;2024-02-16T05:19:16;98793.78;;;18.50;47.05
33163;BME280;29282;45.656;11.302;2024-02-16T05:21:44;98791.38;;;18.48;47.08
33163;BME280;29282;45.656;11.302;2024-02-16T05:24:10;98792.50;;;18.47;46.99
33163;BME280;29282;45.656;11.302;2024-02-16T05:26:36;98788.13;;;18.46;46.87
33163;BME280;29282;45.656;11.302;2024-02-16T05:29:02;98797.16;;;18.47;46.95
33163;BME280;29282;45.656;11.302;2024-02-16T05:31:30;98790.09;;;18.46;46.93
33163;BME280;29282;45.656;11.302;2024-02-16T05:33:56;98787.34;;;18.46;46.61
33163;BME280;29282;45.656;11.302;2024-02-16T05:36:22;98795.56;;;18.46;47.00
33163;BME280;29282;45.656;11.302;2024-02-16T05:38:55;98794.75;;;18.45;46.99
33163;BME280;29282;45.656;11.302;2024-02-16T05:41:21;98788.13;;;18.46;46.83
33163;BME280;29282;45.656;11.302;2024-02-16T05:43:47;98791.22;;;18.45;47.06
33163;BME280;29282;45.656;11.302;2024-02-16T05:46:17;98794.75;;;18.45;47.09
33163;BME280;29282;45.656;11.302;2024-02-16T05:48:43;98787.66;;;18.44;47.06
33163;BME280;29282;45.656;11.302;2024-02-16T05:51:10;98785.72;;;18.45;46.85
33163;BME280;29282;45.656;11.302;2024-02-16T05:53:38;98786.03;;;18.43;46.92
33163;BME280;29282;45.656;11.302;2024-02-16T05:56:04;98786.03;;;18.43;46.96
33163;BME280;29282;45.656;11.302;2024-02-16T05:58:30;98784.09;;;18.44;46.80
33163;BME280;29282;45.656;11.302;2024-02-16T06:00:56;98787.66;;;18.44;46.91
33163;BME280;29282;45.656;11.302;2024-02-16T06:03:22;98794.94;;;18.49;46.98
33163;BME280;29282;45.656;11.302;2024-02-16T06:05:48;98786.72;;;18.58;46.57
33163;BME280;29282;45.656;11.302;2024-02-16T06:08:14;98788.47;;;18.71;46.26
33163;BME280;29282;45.656;11.302;2024-02-16T06:10:42;98795.25;;;18.82;45.92
33163;BME280;29282;45.656;11.302;2024-02-16T06:13:08;98792.81;;;18.98;45.42
33163;BME280;29282;45.656;11.302;2024-02-16T06:15:34;98799.06;;;19.16;45.25
33163;BME280;29282;45.656;11.302;2024-02-16T06:18:03;98793.06;;;19.22;45.04
33163;BME280;29282;45.656;11.302;2024-02-16T06:20:28;98797.91;;;19.34;44.77
33163;BME280;29282;45.656;11.302;2024-02-16T06:22:55;98801.41;;;19.43;44.73
33163;BME280;29282;45.656;11.302;2024-02-16T06:25:20;98803.50;;;19.46;44.64
33163;BME280;29282;45.656;11.302;2024-02-16T06:27:46;98805.44;;;19.46;44.58
33163;BME280;29282;45.656;11.302;2024-02-16T06:30:13;98813.53;;;19.51;44.61
33163;BME280;29282;45.656;11.302;2024-02-16T06:32:40;98813.19;;;19.53;44.58
33163;BME280;29282;45.656;11.302;2024-02-16T06:35:08;98807.53;;;19.49;44.67
33163;BME280;29282;45.656;11.302;2024-02-16T06:37:34;98809.63;;;19.52;44.74
33163;BME280;29282;45.656;11.302;2024-02-16T06:40:00;98812.72;;;19.51;44.82
33163;BME280;29282;45.656;11.302;2024-02-16T06:42:26;98815.47;;;19.51;44.86
33163;BME280;29282;45.656;11.302;2024-02-16T06:44:52;98814.00;;;19.53;44.64
33163;BME280;29282;45.656;11.302;2024-02-16T06:47:17;98818.22;;;19.51;44.72
33163;BME280;29282;45.656;11.302;2024-02-16T06:49:44;98820.63;;;19.52;44.71
33163;BME280;29282;45.656;11.302;2024-02-16T06:52:11;98824.38;;;19.47;44.78
33163;BME280;29282;45.656;11.302;2024-02-16T06:54:37;98828.38;;;19.50;44.86
33163;BME280;29282;45.656;11.302;2024-02-16T06:57:03;98830.16;;;19.55;44.74
33163;BME280;29282;45.656;11.302;2024-02-16T06:59:29;98834.34;;;19.61;44.61
33163;BME280;29282;45.656;11.302;2024-02-16T07:01:54;98835.63;;;19.72;44.50
33163;BME280;29282;45.656;11.302;2024-02-16T07:04:20;98846.09;;;19.79;44.39
33163;BME280;29282;45.656;11.302;2024-02-16T07:06:45;98848.69;;;19.84;44.19
33163;BME280;29282;45.656;11.302;2024-02-16T07:09:11;98843.47;;;19.91;44.11
33163;BME280;29282;45.656;11.302;2024-02-16T07:11:39;98848.91;;;20.00;43.97
33163;BME280;29282;45.656;11.302;2024-02-16T07:14:05;98847.94;;;20.04;43.75
33163;BME280;29282;45.656;11.302;2024-02-16T07:16:34;98847.28;;;20.07;43.83
33163;BME280;29282;45.656;11.302;2024-02-16T07:19:00;98843.38;;;20.08;44.07
33163;BME280;29282;45.656;11.302;2024-02-16T07:21:26;98852.44;;;20.09;43.94
33163;BME280;29282;45.656;11.302;2024-02-16T07:23:52;98848.22;;;20.11;43.89
33163;BME280;29282;45.656;11.302;2024-02-16T07:26:18;98850.78;;;20.16;43.95
33163;BME280;29282;45.656;11.302;2024-02-16T07:28:44;98849.50;;;20.14;43.92
33163;BME280;29282;45.656;11.302;2024-02-16T07:31:09;98851.09;;;20.15;44.05
33163;BME280;29282;45.656;11.302;2024-02-16T07:33:36;98857.91;;;20.17;44.03
33163;BME280;29282;45.656;11.302;2024-02-16T07:36:02;98849.63;;;20.17;44.06
33163;BME280;29282;45.656;11.302;2024-02-16T07:38:27;98854.00;;;20.18;44.01
33163;BME280;29282;45.656;11.302;2024-02-16T07:40:54;98848.84;;;20.17;44.12
33163;BME280;29282;45.656;11.302;2024-02-16T07:43:19;98854.34;;;20.17;44.06
33163;BME280;29282;45.656;11.302;2024-02-16T07:45:45;98848.69;;;20.13;44.20
33163;BME280;29282;45.656;11.302;2024-02-16T07:48:10;98849.81;;;20.12;44.26
33163;BME280;29282;45.656;11.302;2024-02-16T07:50:36;98853.72;;;20.11;44.42
33163;BME280;29282;45.656;11.302;2024-02-16T07:53:01;98853.72;;;20.11;44.28
33163;BME280;29282;45.656;11.302;2024-02-16T07:55:27;98851.31;;;20.10;44.44
33163;BME280;29282;45.656;11.302;2024-02-16T07:57:52;98851.13;;;20.06;44.53
33163;BME280;29282;45.656;11.302;2024-02-16T08:00:18;98852.16;;;20.02;44.59
33163;BME280;29282;45.656;11.302;2024-02-16T08:02:44;98857.31;;;20.03;44.58
33163;BME280;29282;45.656;11.302;2024-02-16T08:05:12;98859.25;;;20.03;44.80
33163;BME280;29282;45.656;11.302;2024-02-16T08:07:41;98860.22;;;20.07;44.70
33163;BME280;29282;45.656;11.302;2024-02-16T08:10:10;98855.66;;;20.11;44.42
33163;BME280;29282;45.656;11.302;2024-02-16T08:12:36;98860.97;;;20.16;44.39
33163;BME280;29282;45.656;11.302;2024-02-16T08:15:03;98867.13;;;20.13;44.49
33163;BME280;29282;45.656;11.302;2024-02-16T08:17:29;98867.28;;;20.16;44.61
33163;BME280;29282;45.656;11.302;2024-02-16T08:19:56;98867.28;;;20.16;44.56
33163;BME280;29282;45.656;11.302;2024-02-16T08:22:21;98870.03;;;20.16;44.56
33163;BME280;29282;45.656;11.302;2024-02-16T08:24:47;98869.88;;;20.13;44.64
33163;BME280;29282;45.656;11.302;2024-02-16T08:27:15;98870.38;;;20.15;44.62
33163;BME280;29282;45.656;11.302;2024-02-16T08:29:41;98864.06;;;20.14;44.74
33163;BME280;29282;45.656;11.302;2024-02-16T08:32:06;98866.81;;;20.14;44.77
33163;BME280;29282;45.656;11.302;2024-02-16T08:34:34;98861.63;;;20.13;44.72
33163;BME280;29282;45.656;11.302;2024-02-16T08:37:03;98861.63;;;20.13;44.69
33163;BME280;29282;45.656;11.302;2024-02-16T08:39:29;98866.31;;;20.12;44.78
33163;BME280;29282;45.656;11.302;2024-02-16T08:41:55;98861.31;;;20.14;44.74
33163;BME280;29282;45.656;11.302;2024-02-16T08:44:21;98860.03;;;20.12;44.71
33163;BME280;29282;45.656;11.302;2024-02-16T08:46:47;98860.81;;;20.12;44.82
33163;BME280;29282;45.656;11.302;2024-02-16T08:49:14;98866.66;;;20.11;44.87
33163;BME280;29282;45.656;11.302;2024-02-16T08:51:39;98862.63;;;20.08;44.86
33163;BME280;29282;45.656;11.302;2024-02-16T08:54:05;98868.47;;;20.07;45.19
33163;BME280;29282;45.656;11.302;2024-02-16T08:56:31;98866.53;;;20.07;44.94
33163;BME280;29282;45.656;11.302;2024-02-16T08:58:57;98867.66;;;20.06;44.91
33163;BME280;29282;45.656;11.302;2024-02-16T09:01:38;98871.53;;;20.05;45.10
33163;BME280;29282;45.656;11.302;2024-02-16T09:04:07;98874.78;;;20.07;44.95
33163;BME280;29282;45.656;11.302;2024-02-16T09:06:32;98872.47;;;20.09;44.97
33163;BME280;29282;45.656;11.302;2024-02-16T09:09:00;98869.94;;;20.04;45.03
33163;BME280;29282;45.656;11.302;2024-02-16T09:11:26;98875.44;;;20.04;44.97
33163;BME280;29282;45.656;11.302;2024-02-16T09:13:53;98880.94;;;20.04;45.09
33163;BME280;29282;45.656;11.302;2024-02-16T09:16:18;98874.50;;;20.00;45.13
33163;BME280;29282;45.656;11.302;2024-02-16T09:18:44;98884.34;;;20.01;45.19
33163;BME280;29282;45.656;11.302;2024-02-16T09:21:10;98873.66;;;20.00;45.13
33163;BME280;29282;45.656;11.302;2024-02-16T09:23:36;98880.31;;;19.99;45.10
33163;BME280;29282;45.656;11.302;2024-02-16T09:26:02;98874.00;;;19.98;45.19
33163;BME280;29282;45.656;11.302;2024-02-16T09:28:28;98892.47;;;19.98;45.16
33163;BME280;29282;45.656;11.302;2024-02-16T09:30:55;98883.41;;;19.97;45.20
33163;BME280;29282;45.656;11.302;2024-02-16T09:33:21;98884.53;;;19.96;45.36
33163;BME280;29282;45.656;11.302;2024-02-16T09:35:48;98882.13;;;19.94;45.10
33163;BME280;29282;45.656;11.302;2024-02-16T09:38:13;98883.72;;;19.95;45.32
33163;BME280;29282;45.656;11.302;2024-02-16T09:40:42;98889.88;;;19.92;45.56
33163;BME280;29282;45.656;11.302;2024-02-16T09:43:07;98882.78;;;19.91;45.23
33163;BME280;29282;45.656;11.302;2024-02-16T09:45:33;98880.50;;;19.93;45.40
33163;BME280;29282;45.656;11.302;2024-02-16T09:47:59;98872.56;;;19.92;45.32
33163;BME280;29282;45.656;11.302;2024-02-16T09:50:25;98874.53;;;19.91;45.20
33163;BME280;29282;45.656;11.302;2024-02-16T09:52:52;98867.06;;;19.92;45.58
33163;BME280;29282;45.656;11.302;2024-02-16T09:55:19;98867.72;;;19.89;45.18
33163;BME280;29282;45.656;11.302;2024-02-16T09:57:45;98872.56;;;19.92;45.30
33163;BME280;29282;45.656;11.302;2024-02-16T10:00:11;98870.03;;;19.87;45.35
33163;BME280;29282;45.656;11.302;2024-02-16T10:02:44;98866.13;;;19.88;45.41
33163;BME280;29282;45.656;11.302;2024-02-16T10:05:35;98862.88;;;19.86;45.40
33163;BME280;29282;45.656;11.302;2024-02-16T10:08:11;98860.13;;;19.86;45.57
33163;BME280;29282;45.656;11.302;2024-02-16T10:10:37;98860.47;;;19.84;45.46
33163;BME280;29282;45.656;11.302;2024-02-16T10:13:06;98863.22;;;19.84;45.50
33163;BME280;29282;45.656;11.302;2024-02-16T10:15:33;98866.28;;;19.83;45.57
33163;BME280;29282;45.656;11.302;2024-02-16T10:18:06;98865.97;;;19.84;45.44
33163;BME280;29282;45.656;11.302;2024-02-16T10:20:34;98866.78;;;19.85;45.47
33163;BME280;29282;45.656;11.302;2024-02-16T10:23:10;98858.84;;;19.83;45.52
33163;BME280;29282;45.656;11.302;2024-02-16T10:25:36;98864.69;;;19.82;45.50
33163;BME280;29282;45.656;11.302;2024-02-16T10:28:07;98867.94;;;19.84;45.54
33163;BME280;29282;45.656;11.302;2024-02-16T10:30:40;98861.94;;;19.82;45.52
33163;BME280;29282;45.656;11.302;2024-02-16T10:33:08;98864.69;;;19.82;45.57
33163;BME280;29282;45.656;11.302;2024-02-16T10:35:37;98858.06;;;19.83;45.47
33163;BME280;29282;45.656;11.302;2024-02-16T10:38:04;98862.88;;;19.86;45.37
33163;BME280;29282;45.656;11.302;2024-02-16T10:40:41;98865.19;;;19.84;45.60
33163;BME280;29282;45.656;11.302;2024-02-16T10:43:08;98861.28;;;19.85;45.47
33163;BME280;29282;45.656;11.302;2024-02-16T10:45:35;98861.94;;;19.82;45.62
33163;BME280;29282;45.656;11.302;2024-02-16T10:48:06;98866.94;;;19.80;45.64
33163;BME280;29282;45.656;11.302;2024-02-16T10:50:34;98861.31;;;19.76;45.61
33163;BME280;29282;45.656;11.302;2024-02-16T10:53:11;98861.66;;;19.75;45.47
33163;BME280;29282;45.656;11.302;2024-02-16T10:55:37;98871.34;;;19.72;45.52
33163;BME280;29282;45.656;11.302;2024-02-16T10:58:03;98863.91;;;19.73;46.55
33163;BME280;29282;45.656;11.302;2024-02-16T11:00:29;98852.78;;;19.69;46.68
33163;BME280;29282;45.656;11.302;2024-02-16T11:02:55;98847.94;;;19.66;46.43
33163;BME280;29282;45.656;11.302;2024-02-16T11:05:35;98858.59;;;19.59;46.30
33163;BME280;29282;45.656;11.302;2024-02-16T11:08:02;98849.41;;;19.55;46.24
33163;BME280;29282;45.656;11.302;2024-02-16T11:10:28;98848.09;;;19.52;46.20
33163;BME280;29282;45.656;11.302;2024-02-16T11:12:54;98846.50;;;19.51;46.27
33163;BME280;29282;45.656;11.302;2024-02-16T11:15:31;98849.56;;;19.49;46.13
33163;BME280;29282;45.656;11.302;2024-02-16T11:17:58;98833.88;;;19.50;45.96
33163;BME280;29282;45.656;11.302;2024-02-16T11:20:25;98836.16;;;19.48;45.87
33163;BME280;29282;45.656;11.302;2024-02-16T11:23:05;98836.47;;;19.46;45.90
33163;BME280;29282;45.656;11.302;2024-02-16T11:25:32;98838.56;;;19.49;45.62
33163;BME280;29282;45.656;11.302;2024-02-16T11:27:58;98830.66;;;19.48;45.85
33163;BME280;29282;45.656;11.302;2024-02-16T11:30:24;98825.47;;;19.46;45.89
33163;BME280;29282;45.656;11.302;2024-02-16T11:32:51;98831.31;;;19.45;46.05
33163;BME280;29282;45.656;11.302;2024-02-16T11:35:17;98815.97;;;19.44;45.91
33163;BME280;29282;45.656;11.302;2024-02-16T11:37:43;98815.97;;;19.44;46.04
33163;BME280;29282;45.656;11.302;2024-02-16T11:40:13;98813.22;;;19.44;45.89
33163;BME280;29282;45.656;11.302;2024-02-16T11:42:39;98807.47;;;19.28;43.34
33163;BME280;29282;45.656;11.302;2024-02-16T11:45:05;98799.72;;;19.13;41.22
33163;BME280;29282;45.656;11.302;2024-02-16T11:47:31;98807.19;;;18.95;40.25
33163;BME280;29282;45.656;11.302;2024-02-16T11:50:07;98796.69;;;18.97;41.19
33163;BME280;29282;45.656;11.302;2024-02-16T11:52:41;98796.81;;;19.09;41.77
33163;BME280;29282;45.656;11.302;2024-02-16T11:55:10;98793.59;;;19.16;42.05
33163;BME280;29282;45.656;11.302;2024-02-16T11:57:37;98788.38;;;19.23;41.89
33163;BME280;29282;45.656;11.302;2024-02-16T12:00:04;98786.28;;;19.29;41.66
33163;BME280;29282;45.656;11.302;2024-02-16T12:02:34;98789.47;;;19.39;41.80
33163;BME280;29282;45.656;11.302;2024-02-16T12:05:01;98784.41;;;19.50;41.70
33163;BME280;29282;45.656;11.302;2024-02-16T12:07:27;98782.78;;;19.58;41.57
33163;BME280;29282;45.656;11.302;2024-02-16T12:09:57;98774.19;;;19.68;41.58
33163;BME280;29282;45.656;11.302;2024-02-16T12:12:24;98778.50;;;19.78;41.64
33163;BME280;29282;45.656;11.302;2024-02-16T12:14:49;98778.78;;;19.85;41.09
33163;BME280;29282;45.656;11.302;2024-02-16T12:17:15;98769.88;;;19.88;41.28
33163;BME280;29282;45.656;11.302;2024-02-16T12:19:44;98764.66;;;19.95;41.38
33163;BME280;29282;45.656;11.302;2024-02-16T12:22:20;98773.41;;;19.97;41.45
33163;BME280;29282;45.656;11.302;2024-02-16T12:24:49;98770.66;;;19.97;41.36
33163;BME280;29282;45.656;11.302;2024-02-16T12:27:18;98766.41;;;20.00;41.69
33163;BME280;29282;45.656;11.302;2024-02-16T12:29:46;98768.16;;;20.04;41.70
33163;BME280;29282;45.656;11.302;2024-02-16T12:32:13;98765.41;;;20.04;41.91
33163;BME280;29282;45.656;11.302;2024-02-16T12:34:45;98765.56;;;20.08;41.90
33163;BME280;29282;45.656;11.302;2024-02-16T12:37:11;98766.34;;;20.08;41.83
33163;BME280;29282;45.656;11.302;2024-02-16T12:39:37;98759.13;;;20.04;41.96
33163;BME280;29282;45.656;11.302;2024-02-16T12:42:06;98754.88;;;20.06;42.07
33163;BME280;29282;45.656;11.302;2024-02-16T12:44:33;98757.97;;;20.05;42.22
33163;BME280;29282;45.656;11.302;2024-02-16T12:46:59;98759.91;;;20.04;42.38
33163;BME280;29282;45.656;11.302;2024-02-16T12:49:24;98758.44;;;20.07;42.38